Overview Statistics Trail Chart Weather Telemetry Raw packets
 

This is the latest recevied weather packets stored in our database for station/object xx2mm-12. If no packets are shown the sender has not sent any weather packets the latest 10 day(s).

<< 126 127 128 129 130 131 132 >>
Time Temp. Humidity Pressure Rain* Wind** Luminosity Snow
1777448987 -51.67° C 1% 65.1 hPa - - - -
1777448786 -51.67° C 1% 65.1 hPa - - - -
1777448689 -51.67° C 1% 65.1 hPa - - - -
1777448593 -51.67° C 1% 65.1 hPa - - - -
1777448496 20.56° C 70% 1005.8 hPa - - - -
1777448294 -51.67° C 1% 65.1 hPa - - - -
1777448197 -51.67° C 1% 65.1 hPa - - - -
1777448100 -51.67° C 1% 65.1 hPa - - - -
1777448004 -51.67° C 1% 65.1 hPa - - - -
1777447907 -51.67° C 1% 65.1 hPa - - - -
1777447807 21.11° C 64% 1005.8 hPa - - - -
1777447710 21.11° C 67% 1005.8 hPa - - - -
1777447612 21.11° C 64% 1005.9 hPa - - - -
1777447515 21.11° C 70% 1005.9 hPa - - - -
1777447418 21.11° C 65% 1005.9 hPa - - - -
1777447321 21.11° C 64% 1006 hPa - - - -
1777447225 21.11° C 62% 1006 hPa - - - -
1777447128 21.11° C 62% 1006 hPa - - - -
1777447032 21.11° C 63% 1006.1 hPa - - - -
1777446936 21.11° C 63% 1006.1 hPa - - - -
1777446733 21.67° C 66% 1006.1 hPa - - - -
1777446531 21.67° C 65% 1006.1 hPa - - - -
1777446434 21.67° C 62% 1006.2 hPa - - - -
1777446336 21.67° C 68% 1006.2 hPa - - - -
1777446134 21.11° C 65% 1006.2 hPa - - - -

* Rain since midnight (hover to see other rain measurements)
** Current wind speed in m/s (hover to see current wind gust speed)